createdAt,value
2017-12-06T00:01:18.984Z,17.77
2017-12-06T00:03:47.322Z,18.07
2017-12-06T00:06:15.742Z,16.93
2017-12-06T00:08:44.097Z,17.57
2017-12-06T00:11:13.211Z,16.87
2017-12-06T00:13:46.998Z,17.10
2017-12-06T00:16:16.209Z,17.20
2017-12-06T00:18:44.565Z,18.53
2017-12-06T00:21:13.679Z,17.33
2017-12-06T00:23:41.832Z,17.37
2017-12-06T00:26:10.927Z,16.97
2017-12-06T00:28:40.314Z,17.80
2017-12-06T00:31:10.554Z,17.10
2017-12-06T00:33:39.139Z,17.53
2017-12-06T00:36:07.489Z,17.23
2017-12-06T00:38:35.881Z,17.93
2017-12-06T00:41:04.988Z,18.43
2017-12-06T00:43:34.357Z,19.10
2017-12-06T00:46:02.820Z,18.83
2017-12-06T00:48:31.160Z,18.10
2017-12-06T00:50:59.515Z,17.80
2017-12-06T00:53:28.606Z,17.63
2017-12-06T00:55:56.943Z,18.17
2017-12-06T00:58:25.316Z,17.77
2017-12-06T01:00:53.647Z,17.27
2017-12-06T01:03:22.034Z,16.20
2017-12-06T01:05:50.404Z,17.23
2017-12-06T01:08:18.803Z,15.37
2017-12-06T01:10:47.132Z,16.70
2017-12-06T01:13:16.265Z,16.03
2017-12-06T01:15:44.604Z,16.00
2017-12-06T01:18:13.720Z,16.67
2017-12-06T01:20:41.961Z,16.93
2017-12-06T01:23:10.295Z,15.67
2017-12-06T01:25:38.649Z,15.50
2017-12-06T01:28:07.002Z,15.60
2017-12-06T01:30:36.103Z,16.00
2017-12-06T01:33:06.227Z,16.27
2017-12-06T01:35:36.181Z,16.07
2017-12-06T01:38:05.264Z,16.37
2017-12-06T01:40:34.202Z,15.90
2017-12-06T01:43:04.310Z,15.37
2017-12-06T01:45:33.033Z,14.87
2017-12-06T01:48:02.155Z,15.17
2017-12-06T01:50:37.901Z,14.03
2017-12-06T01:53:06.235Z,14.67
2017-12-06T01:55:35.972Z,15.43
2017-12-06T01:58:04.144Z,15.30
2017-12-06T02:00:32.488Z,15.80
2017-12-06T02:03:01.862Z,15.17
2017-12-06T02:05:30.011Z,14.67
2017-12-06T02:07:58.352Z,14.63
2017-12-06T02:10:27.748Z,14.37
2017-12-06T02:12:56.851Z,13.87
2017-12-06T02:15:25.624Z,14.60
2017-12-06T02:17:54.739Z,14.47
2017-12-06T02:20:22.428Z,14.50
2017-12-06T02:22:50.096Z,13.47
2017-12-06T02:25:17.766Z,13.80
2017-12-06T02:27:45.457Z,13.97
2017-12-06T02:30:13.787Z,13.60
2017-12-06T02:32:42.147Z,13.77
2017-12-06T02:35:10.492Z,12.73
2017-12-06T02:37:39.268Z,13.00
2017-12-06T02:40:18.983Z,12.80
2017-12-06T02:42:58.641Z,12.97
2017-12-06T02:45:27.984Z,12.30
2017-12-06T02:47:56.398Z,12.63
2017-12-06T02:50:25.007Z,13.33
2017-12-06T02:52:53.347Z,12.70
2017-12-06T02:55:21.046Z,13.57
2017-12-06T02:57:48.756Z,12.97
2017-12-06T03:00:17.103Z,13.03
2017-12-06T03:02:46.207Z,12.13
2017-12-06T03:05:15.302Z,12.80
2017-12-06T03:07:44.421Z,13.43
2017-12-06T03:10:12.741Z,12.60
2017-12-06T03:12:41.095Z,12.47
2017-12-06T03:15:09.444Z,13.37
2017-12-06T03:17:37.784Z,13.57
2017-12-06T03:20:06.118Z,12.43
2017-12-06T03:22:34.452Z,13.33
2017-12-06T03:25:03.594Z,12.50
2017-12-06T03:27:31.949Z,12.40
2017-12-06T03:30:00.296Z,12.83
2017-12-06T03:32:29.416Z,12.90
2017-12-06T03:34:57.766Z,12.87
2017-12-06T03:37:26.861Z,12.77
2017-12-06T03:39:55.992Z,12.37
2017-12-06T03:42:25.405Z,13.43
2017-12-06T03:44:53.759Z,12.43
2017-12-06T03:47:22.105Z,12.97
2017-12-06T03:49:51.244Z,14.80
2017-12-06T03:52:19.621Z,14.40
2017-12-06T03:54:47.965Z,12.57
2017-12-06T03:57:17.077Z,13.17
2017-12-06T03:59:45.225Z,12.40
2017-12-06T04:02:14.366Z,13.50
2017-12-06T04:04:42.701Z,13.50
2017-12-06T04:07:11.808Z,13.40
2017-12-06T04:09:40.159Z,12.53
2017-12-06T04:12:08.548Z,13.43
2017-12-06T04:14:37.672Z,12.37
2017-12-06T04:17:06.056Z,12.30
2017-12-06T04:19:34.396Z,12.77
2017-12-06T04:22:04.503Z,12.47
2017-12-06T04:24:33.031Z,12.17
2017-12-06T04:27:01.371Z,11.80
2017-12-06T04:29:30.484Z,13.17
2017-12-06T04:31:59.854Z,11.70
2017-12-06T04:34:28.210Z,12.20
2017-12-06T04:36:56.563Z,12.37
2017-12-06T04:39:24.924Z,11.43
2017-12-06T04:41:54.268Z,12.17
2017-12-06T04:44:22.621Z,11.33
2017-12-06T04:46:50.787Z,11.47
2017-12-06T04:49:19.128Z,11.40
2017-12-06T04:51:49.222Z,11.83
2017-12-06T04:54:17.575Z,11.80
2017-12-06T04:56:45.920Z,11.27
2017-12-06T04:59:14.280Z,10.77
2017-12-06T05:01:43.383Z,10.80
2017-12-06T05:04:11.713Z,10.43
2017-12-06T05:06:40.062Z,10.23
2017-12-06T05:09:08.385Z,10.77
2017-12-06T05:11:37.486Z,11.57
2017-12-06T05:14:06.609Z,11.17
2017-12-06T05:16:35.303Z,11.73
2017-12-06T05:19:03.652Z,11.20
2017-12-06T05:21:33.027Z,11.67
2017-12-06T05:24:01.353Z,12.43
2017-12-06T05:26:29.676Z,11.23
2017-12-06T05:28:58.024Z,10.97
2017-12-06T05:31:27.663Z,11.37
2017-12-06T05:33:55.989Z,10.63
2017-12-06T05:36:24.322Z,10.80
2017-12-06T05:38:52.673Z,10.10
2017-12-06T05:41:21.009Z,11.20
2017-12-06T05:43:49.405Z,11.07
2017-12-06T05:46:17.887Z,11.30
2017-12-06T05:48:46.214Z,10.37
2017-12-06T05:51:14.566Z,10.50
2017-12-06T05:53:42.905Z,11.23
2017-12-06T05:56:11.226Z,11.37
2017-12-06T05:58:39.590Z,11.10
2017-12-06T06:01:07.945Z,10.30
2017-12-06T06:03:36.288Z,10.37
2017-12-06T06:06:06.166Z,9.70
2017-12-06T06:08:34.497Z,10.00
2017-12-06T06:11:03.107Z,9.77
2017-12-06T06:13:31.474Z,10.23
2017-12-06T06:15:59.811Z,9.90
2017-12-06T06:18:28.916Z,9.83
2017-12-06T06:20:57.287Z,10.00
2017-12-06T06:23:26.381Z,9.73
2017-12-06T06:25:55.485Z,9.17
2017-12-06T06:28:23.831Z,9.60
2017-12-06T06:30:52.185Z,9.47
2017-12-06T06:33:20.505Z,9.77
2017-12-06T06:35:49.632Z,9.37
2017-12-06T06:38:17.954Z,8.93
2017-12-06T06:40:46.298Z,9.13
2017-12-06T06:43:14.686Z,11.47
2017-12-06T06:45:43.038Z,10.83
2017-12-06T06:48:11.385Z,11.33
2017-12-06T06:50:40.527Z,11.63
2017-12-06T06:53:09.043Z,11.93
2017-12-06T06:55:37.384Z,12.60
2017-12-06T06:58:06.427Z,11.40
2017-12-06T07:00:36.139Z,11.00
2017-12-06T07:03:05.249Z,11.47
2017-12-06T07:05:34.072Z,10.57
2017-12-06T07:08:02.418Z,11.10
2017-12-06T07:10:30.804Z,10.17
2017-12-06T07:12:59.168Z,10.83
2017-12-06T07:15:27.511Z,10.77
2017-12-06T07:17:55.843Z,11.50
2017-12-06T07:20:23.859Z,10.90
2017-12-06T07:22:52.223Z,11.20
2017-12-06T07:25:20.576Z,11.07
2017-12-06T07:27:48.599Z,11.57
2017-12-06T07:30:17.733Z,10.77
2017-12-06T07:32:45.745Z,10.70
2017-12-06T07:35:13.918Z,10.13
2017-12-06T07:37:42.094Z,10.87
2017-12-06T07:40:10.237Z,10.20
2017-12-06T07:42:38.653Z,10.70
2017-12-06T07:45:07.141Z,11.03
2017-12-06T07:47:36.288Z,10.57
2017-12-06T07:50:04.652Z,10.00
2017-12-06T07:52:33.121Z,10.83
2017-12-06T07:55:01.463Z,10.40
2017-12-06T07:57:30.564Z,11.03
2017-12-06T07:59:59.661Z,11.13
2017-12-06T08:02:28.801Z,10.90
2017-12-06T08:04:57.164Z,10.33
2017-12-06T08:07:25.491Z,10.60
2017-12-06T08:09:53.858Z,10.37
2017-12-06T08:12:22.190Z,10.20
2017-12-06T08:14:50.563Z,10.27
2017-12-06T08:17:18.924Z,10.43
2017-12-06T08:19:48.027Z,10.37
2017-12-06T08:22:16.372Z,10.40
2017-12-06T08:24:44.782Z,10.60
2017-12-06T08:27:13.132Z,9.90
2017-12-06T08:29:41.503Z,10.67
2017-12-06T08:32:09.843Z,11.00
2017-12-06T08:34:38.237Z,10.60
2017-12-06T08:37:06.580Z,10.17
2017-12-06T08:39:35.766Z,10.23
2017-12-06T08:42:03.809Z,10.77
2017-12-06T08:44:32.163Z,10.90
2017-12-06T08:47:00.517Z,11.23
2017-12-06T08:49:28.864Z,11.93
2017-12-06T08:51:57.196Z,11.20
2017-12-06T08:54:25.227Z,10.53
2017-12-06T08:56:53.219Z,10.83
2017-12-06T08:59:21.577Z,10.93
2017-12-06T09:01:49.588Z,10.10
2017-12-06T09:04:17.594Z,11.57
2017-12-06T09:06:45.929Z,11.13
2017-12-06T09:09:13.994Z,10.83
2017-12-06T09:11:42.008Z,11.00
2017-12-06T09:14:10.360Z,10.30
2017-12-06T09:16:38.710Z,11.23
2017-12-06T09:19:07.045Z,10.50
2017-12-06T09:21:35.060Z,11.23
2017-12-06T09:24:03.974Z,10.57
2017-12-06T09:26:32.778Z,11.97
2017-12-06T09:29:02.383Z,10.83
2017-12-06T09:31:31.502Z,11.20
2017-12-06T09:33:59.840Z,10.97
2017-12-06T09:36:28.627Z,12.00
2017-12-06T09:38:57.743Z,11.87
2017-12-06T09:41:26.101Z,10.70
2017-12-06T09:43:55.198Z,11.17
2017-12-06T09:46:24.303Z,11.60
2017-12-06T09:48:53.410Z,10.30
2017-12-06T09:51:21.748Z,11.57
2017-12-06T09:53:50.093Z,10.80
2017-12-06T09:56:18.436Z,11.13
2017-12-06T09:58:46.832Z,11.13
2017-12-06T10:01:15.160Z,11.97
2017-12-06T10:03:43.511Z,11.30
2017-12-06T10:06:11.869Z,11.80
2017-12-06T10:08:41.018Z,11.60
2017-12-06T10:11:09.364Z,10.77
2017-12-06T10:13:37.709Z,11.67
2017-12-06T10:16:06.053Z,11.57
2017-12-06T10:18:34.953Z,11.57
2017-12-06T10:21:03.994Z,10.67
2017-12-06T10:23:32.348Z,13.57
2017-12-06T10:26:00.343Z,12.33
2017-12-06T10:28:28.351Z,11.43
2017-12-06T10:30:57.466Z,11.53
2017-12-06T10:33:25.152Z,11.87
2017-12-06T10:35:53.154Z,12.73
2017-12-06T10:38:21.180Z,11.77
2017-12-06T10:40:49.705Z,12.93
2017-12-06T10:43:18.060Z,13.30
2017-12-06T10:45:45.741Z,12.17
2017-12-06T10:48:14.094Z,12.13
2017-12-06T10:50:42.800Z,12.10
2017-12-06T10:53:11.154Z,11.90
2017-12-06T10:55:39.485Z,12.30
2017-12-06T10:58:08.597Z,11.10
2017-12-06T11:00:36.428Z,11.47
2017-12-06T11:03:04.763Z,11.37
2017-12-06T11:05:33.243Z,11.47
2017-12-06T11:08:01.590Z,11.47
2017-12-06T11:10:30.691Z,11.23
2017-12-06T11:12:59.809Z,11.67
2017-12-06T11:15:28.156Z,10.63
2017-12-06T11:17:57.250Z,11.30
2017-12-06T11:20:26.366Z,10.47
2017-12-06T11:22:54.701Z,11.67
2017-12-06T11:25:23.064Z,11.40
2017-12-06T11:27:51.407Z,10.97
2017-12-06T11:30:19.739Z,11.20
2017-12-06T11:32:48.114Z,11.67
2017-12-06T11:35:16.671Z,11.03
2017-12-06T11:37:45.023Z,11.83
2017-12-06T11:40:13.373Z,11.43
2017-12-06T11:42:42.491Z,11.60
2017-12-06T11:45:10.885Z,11.47
2017-12-06T11:47:39.428Z,10.77
2017-12-06T11:50:08.549Z,10.67
2017-12-06T11:52:37.910Z,10.47
2017-12-06T11:55:07.026Z,10.97
2017-12-06T11:57:36.154Z,10.90
2017-12-06T12:00:04.693Z,11.43
2017-12-06T12:02:35.390Z,11.00
2017-12-06T12:05:04.505Z,11.13
2017-12-06T12:07:32.842Z,10.87
2017-12-06T12:10:01.169Z,10.83
2017-12-06T12:12:31.343Z,10.83
2017-12-06T12:14:59.694Z,11.13
2017-12-06T12:17:28.048Z,10.43
2017-12-06T12:19:57.153Z,11.83
2017-12-06T12:22:26.263Z,10.83
2017-12-06T12:24:54.286Z,11.33
2017-12-06T12:27:22.628Z,10.57
2017-12-06T12:29:50.972Z,10.83
2017-12-06T12:32:21.110Z,10.40
2017-12-06T12:34:49.634Z,10.40
2017-12-06T12:37:17.420Z,10.27
2017-12-06T12:39:45.146Z,10.70
2017-12-06T12:42:14.722Z,11.90
2017-12-06T12:44:42.433Z,11.33
2017-12-06T12:47:10.147Z,11.73
2017-12-06T12:49:37.994Z,10.50
2017-12-06T12:52:07.409Z,10.70
2017-12-06T12:54:36.046Z,11.40
2017-12-06T12:57:04.435Z,12.17
2017-12-06T12:59:32.097Z,11.53
2017-12-06T13:02:00.723Z,11.03
2017-12-06T13:04:28.426Z,11.73
2017-12-06T13:06:56.098Z,11.07
2017-12-06T13:09:23.787Z,10.77
2017-12-06T13:11:53.233Z,10.83
2017-12-06T13:14:20.894Z,12.10
2017-12-06T13:16:48.596Z,10.83
2017-12-06T13:19:16.291Z,11.17
2017-12-06T13:21:43.989Z,11.47
2017-12-06T13:24:11.646Z,11.17
2017-12-06T13:26:39.147Z,11.80
2017-12-06T13:29:07.594Z,10.80
2017-12-06T13:31:35.736Z,11.10
2017-12-06T13:34:03.909Z,11.30
2017-12-06T13:36:31.575Z,11.23
2017-12-06T13:38:59.248Z,11.67
2017-12-06T13:41:26.925Z,11.53
2017-12-06T13:43:54.600Z,12.50
2017-12-06T13:46:22.292Z,12.43
2017-12-06T13:48:50.726Z,12.27
2017-12-06T13:51:19.180Z,11.70
2017-12-06T13:53:46.850Z,11.60
2017-12-06T13:56:14.523Z,11.33
2017-12-06T13:58:42.231Z,12.07
2017-12-06T14:01:10.677Z,11.10
2017-12-06T14:03:38.362Z,11.33
2017-12-06T14:06:06.077Z,11.50
2017-12-06T14:08:34.421Z,10.50
2017-12-06T14:11:03.434Z,11.10
2017-12-06T14:13:31.101Z,11.70
2017-12-06T14:15:58.792Z,11.37
2017-12-06T14:18:26.490Z,10.87
2017-12-06T14:20:54.923Z,12.03
2017-12-06T14:23:22.933Z,12.50
2017-12-06T14:25:51.425Z,10.70
2017-12-06T14:28:20.065Z,11.10
2017-12-06T14:30:47.741Z,11.67
2017-12-06T14:33:15.438Z,11.60
2017-12-06T14:35:43.700Z,11.37
2017-12-06T14:38:12.144Z,11.30
2017-12-06T14:40:39.836Z,11.90
2017-12-06T14:43:08.634Z,10.80
2017-12-06T14:45:37.057Z,11.03
2017-12-06T14:48:05.008Z,12.03
2017-12-06T14:50:33.326Z,11.17
2017-12-06T14:53:01.502Z,11.20
2017-12-06T14:55:29.197Z,11.63
2017-12-06T14:57:57.644Z,11.13
2017-12-06T15:00:25.637Z,10.70
2017-12-06T15:02:54.095Z,11.53
2017-12-06T15:05:21.787Z,13.40
2017-12-06T15:07:50.228Z,12.87
2017-12-06T15:10:17.901Z,12.30
2017-12-06T15:12:45.592Z,12.30
2017-12-06T15:15:13.600Z,12.73
2017-12-06T15:17:41.292Z,11.83
2017-12-06T15:20:08.983Z,11.80
2017-12-06T15:22:37.755Z,11.27
2017-12-06T15:25:06.213Z,10.70
2017-12-06T15:27:34.076Z,11.10
2017-12-06T15:30:01.748Z,10.07
2017-12-06T15:32:29.632Z,10.60
2017-12-06T15:34:58.102Z,11.57
2017-12-06T15:37:26.108Z,11.57
2017-12-06T15:39:53.899Z,11.77
2017-12-06T15:42:21.373Z,13.00
2017-12-06T15:44:49.054Z,12.43
2017-12-06T15:47:16.926Z,12.03
2017-12-06T15:49:45.385Z,13.20
2017-12-06T15:52:13.709Z,12.07
2017-12-06T15:54:41.731Z,11.43
2017-12-06T15:57:09.739Z,11.50
2017-12-06T15:59:37.783Z,11.83
2017-12-06T16:02:06.130Z,11.60
2017-12-06T16:04:34.790Z,11.20
2017-12-06T16:07:03.518Z,14.17
2017-12-06T16:09:31.519Z,15.53
2017-12-06T16:12:00.647Z,11.83
2017-12-06T16:14:28.665Z,12.97
2017-12-06T16:16:56.371Z,13.40
2017-12-06T16:19:24.053Z,14.47
2017-12-06T16:21:51.721Z,14.10
2017-12-06T16:24:19.743Z,13.43
2017-12-06T16:26:47.761Z,14.07
2017-12-06T16:29:15.774Z,12.90
2017-12-06T16:31:44.311Z,12.27
2017-12-06T16:34:11.970Z,12.07
2017-12-06T16:36:51.653Z,13.97
2017-12-06T16:39:20.094Z,12.03
2017-12-06T16:41:49.437Z,12.53
2017-12-06T16:44:17.898Z,11.50
2017-12-06T16:46:45.557Z,12.77
2017-12-06T16:49:13.260Z,12.07
2017-12-06T16:51:41.284Z,10.97
2017-12-06T16:54:08.959Z,11.70
2017-12-06T16:56:36.649Z,12.40
2017-12-06T16:59:04.876Z,10.23
2017-12-06T17:01:32.544Z,20.67
2017-12-06T17:04:00.235Z,13.87
2017-12-06T17:06:29.019Z,15.37
2017-12-06T17:08:57.449Z,15.33
2017-12-06T17:11:25.483Z,16.57
2017-12-06T17:13:53.193Z,17.43
2017-12-06T17:16:21.060Z,17.20
2017-12-06T17:18:48.907Z,18.50
2017-12-06T17:21:16.565Z,17.40
2017-12-06T17:23:44.937Z,31.63
2017-12-06T17:26:12.613Z,19.63
2017-12-06T17:28:52.254Z,24.07
2017-12-06T17:31:32.003Z,20.43
2017-12-06T17:34:00.356Z,22.80
2017-12-06T17:36:28.395Z,24.50
2017-12-06T17:38:56.836Z,25.33
2017-12-06T17:41:24.858Z,25.20
2017-12-06T17:43:52.548Z,14.87
2017-12-06T17:46:20.234Z,22.17
2017-12-06T17:48:47.958Z,20.77
2017-12-06T17:51:15.655Z,23.27
2017-12-06T17:53:43.361Z,24.37
2017-12-06T17:56:11.092Z,21.80
2017-12-06T17:58:38.790Z,20.50
2017-12-06T18:01:06.596Z,23.37
2017-12-06T18:03:34.546Z,20.60
2017-12-06T18:06:02.215Z,22.20
2017-12-06T18:08:29.907Z,19.53
2017-12-06T18:10:57.587Z,19.27
2017-12-06T18:13:26.356Z,19.23
2017-12-06T18:15:54.130Z,18.63
2017-12-06T18:18:22.160Z,28.00
2017-12-06T18:20:49.877Z,25.23
2017-12-06T18:23:18.598Z,28.17
2017-12-06T18:25:46.374Z,23.43
2017-12-06T18:28:14.094Z,25.53
2017-12-06T18:30:41.781Z,26.03
2017-12-06T18:33:09.469Z,25.83
2017-12-06T18:35:37.587Z,21.60
2017-12-06T18:38:06.469Z,20.57
2017-12-06T18:40:35.291Z,23.70
2017-12-06T18:43:04.175Z,22.27
2017-12-06T18:45:32.179Z,20.70
2017-12-06T18:48:01.122Z,20.77
2017-12-06T18:50:29.460Z,19.03
2017-12-06T18:52:58.036Z,17.13
2017-12-06T18:55:26.437Z,16.63
2017-12-06T18:57:55.065Z,15.47
2017-12-06T19:00:23.028Z,15.63
2017-12-06T19:02:51.497Z,15.73
2017-12-06T19:05:20.432Z,15.00
2017-12-06T19:07:49.999Z,15.57
2017-12-06T19:10:18.561Z,14.73
2017-12-06T19:12:47.422Z,16.33
2017-12-06T19:15:16.079Z,15.50
2017-12-06T19:17:44.834Z,15.70
2017-12-06T19:20:13.074Z,15.33
2017-12-06T19:22:41.522Z,15.30
2017-12-06T19:25:10.037Z,14.87
2017-12-06T19:27:39.527Z,15.17
2017-12-06T19:30:08.942Z,15.67
2017-12-06T19:32:37.856Z,18.23
2017-12-06T19:35:06.627Z,16.23
2017-12-06T19:37:36.114Z,16.83
2017-12-06T19:40:05.845Z,15.13
2017-12-06T19:42:35.182Z,15.97
2017-12-06T19:45:04.515Z,14.13
2017-12-06T19:47:35.060Z,15.20
2017-12-06T19:50:04.638Z,15.10
2017-12-06T19:52:34.506Z,14.53
2017-12-06T19:55:03.097Z,14.23
2017-12-06T19:57:31.515Z,15.77
2017-12-06T20:00:00.353Z,14.83
2017-12-06T20:02:29.291Z,13.60
2017-12-06T20:04:58.929Z,13.73
2017-12-06T20:07:28.368Z,14.07
2017-12-06T20:09:57.230Z,13.20
2017-12-06T20:12:25.890Z,12.77
2017-12-06T20:14:54.793Z,12.20
2017-12-06T20:17:23.541Z,12.80
2017-12-06T20:19:52.526Z,12.17
2017-12-06T20:22:21.914Z,11.83
2017-12-06T20:24:50.794Z,12.10
2017-12-06T20:27:19.658Z,12.23
2017-12-06T20:29:48.435Z,11.70
2017-12-06T20:32:17.265Z,11.83
2017-12-06T20:34:46.025Z,12.37
2017-12-06T20:37:14.831Z,12.30
2017-12-06T20:39:43.331Z,12.30
2017-12-06T20:42:12.980Z,11.70
2017-12-06T20:44:41.762Z,11.80
2017-12-06T20:47:10.562Z,11.57
2017-12-06T20:49:39.308Z,12.30
2017-12-06T20:52:08.031Z,11.50
2017-12-06T20:54:37.531Z,11.97
2017-12-06T20:57:07.107Z,12.10
2017-12-06T20:59:36.892Z,11.50
2017-12-06T21:02:06.189Z,12.17
2017-12-06T21:04:34.722Z,12.80
2017-12-06T21:07:03.592Z,11.90
2017-12-06T21:09:32.227Z,11.97
2017-12-06T21:12:00.839Z,12.40
2017-12-06T21:14:29.483Z,10.87
2017-12-06T21:16:58.599Z,11.83
2017-12-06T21:19:26.966Z,11.23
2017-12-06T21:21:56.304Z,11.13
2017-12-06T21:24:24.678Z,11.43
2017-12-06T21:26:53.016Z,11.63
2017-12-06T21:29:22.150Z,11.03
2017-12-06T21:31:50.499Z,11.80
2017-12-06T21:34:19.631Z,11.63
2017-12-06T21:36:47.962Z,10.67
2017-12-06T21:39:17.086Z,11.70
2017-12-06T21:41:45.428Z,10.83
2017-12-06T21:44:14.574Z,10.40
2017-12-06T21:46:42.914Z,11.17
2017-12-06T21:49:12.003Z,11.30
2017-12-06T21:51:41.164Z,11.23
2017-12-06T21:54:09.566Z,10.40
2017-12-06T21:56:38.666Z,11.90
2017-12-06T21:59:08.050Z,10.90
2017-12-06T22:01:36.397Z,10.87
2017-12-06T22:04:05.756Z,10.87
2017-12-06T22:06:35.152Z,11.33
2017-12-06T22:09:03.620Z,11.07
2017-12-06T22:11:32.737Z,10.90
2017-12-06T22:14:01.116Z,11.83
2017-12-06T22:16:29.458Z,11.70
2017-12-06T22:18:57.803Z,11.93
2017-12-06T22:21:25.815Z,12.03
2017-12-06T22:23:54.918Z,12.10
2017-12-06T22:26:24.040Z,11.83
2017-12-06T22:28:52.413Z,11.73
2017-12-06T22:31:20.746Z,12.30
2017-12-06T22:33:49.082Z,12.63
2017-12-06T22:36:17.435Z,12.20
2017-12-06T22:38:45.788Z,11.57
2017-12-06T22:41:14.916Z,11.77
2017-12-06T22:43:44.004Z,12.80
2017-12-06T22:46:12.368Z,12.53
2017-12-06T22:48:42.033Z,12.97
2017-12-06T22:51:10.385Z,13.47
2017-12-06T22:53:38.745Z,12.30
2017-12-06T22:56:07.095Z,12.27
2017-12-06T22:58:36.970Z,12.37
2017-12-06T23:01:06.063Z,12.30
2017-12-06T23:03:35.054Z,12.57
2017-12-06T23:06:03.821Z,13.50
2017-12-06T23:08:32.150Z,12.97
2017-12-06T23:11:00.500Z,13.10
2017-12-06T23:13:28.535Z,13.40
2017-12-06T23:15:56.857Z,13.30
2017-12-06T23:18:25.208Z,12.90
2017-12-06T23:20:53.577Z,12.77
2017-12-06T23:23:21.911Z,12.87
2017-12-06T23:25:50.678Z,13.87
2017-12-06T23:28:19.027Z,14.57
2017-12-06T23:30:47.380Z,14.77
2017-12-06T23:33:15.713Z,14.03
2017-12-06T23:35:43.733Z,14.70
2017-12-06T23:38:12.082Z,14.17
2017-12-06T23:40:40.520Z,15.27
2017-12-06T23:43:08.535Z,15.43
2017-12-06T23:45:37.323Z,14.97
2017-12-06T23:48:06.429Z,14.77
2017-12-06T23:50:34.776Z,15.83
2017-12-06T23:53:03.161Z,16.40
2017-12-06T23:55:32.277Z,15.73
2017-12-06T23:58:00.621Z,16.07
